createdAt,value
2023-04-11T00:02:45.033Z,99623.61
2023-04-11T00:05:46.679Z,99616.91
2023-04-11T00:08:48.231Z,99611.16
2023-04-11T00:11:49.786Z,99603.58
2023-04-11T00:14:51.818Z,99603.19
2023-04-11T00:17:53.928Z,99602.30
2023-04-11T00:20:55.838Z,99601.73
2023-04-11T00:23:57.570Z,99600.96
2023-04-11T00:26:59.351Z,99595.41
2023-04-11T00:30:01.312Z,99593.16
2023-04-11T00:33:02.909Z,99587.73
2023-04-11T00:36:04.810Z,99581.95
2023-04-11T00:39:06.965Z,99580.91
2023-04-11T00:42:08.949Z,99571.55
2023-04-11T00:45:11.147Z,99566.31
2023-04-11T00:48:12.787Z,99562.80
2023-04-11T00:51:19.011Z,99564.59
2023-04-11T00:54:20.571Z,99567.34
2023-04-11T00:57:22.292Z,99569.77
2023-04-11T01:00:24.450Z,99562.89
2023-04-11T01:03:26.523Z,99562.70
2023-04-11T01:06:30.080Z,99560.61
2023-04-11T01:09:33.278Z,99557.60
2023-04-11T01:12:36.014Z,99555.08
2023-04-11T01:15:37.539Z,99556.51
2023-04-11T01:18:39.353Z,99552.56
2023-04-11T01:21:41.328Z,99548.54
2023-04-11T01:24:42.922Z,99544.67
2023-04-11T01:27:44.810Z,99543.02
2023-04-11T01:30:46.671Z,99540.98
2023-04-11T01:33:48.501Z,99532.10
2023-04-11T01:36:50.086Z,99527.48
2023-04-11T01:39:52.133Z,99528.05
2023-04-11T01:42:56.897Z,99521.27
2023-04-11T01:45:58.360Z,99520.46
2023-04-11T01:49:00.494Z,99519.34
2023-04-11T01:52:02.857Z,99515.79
2023-04-11T01:55:04.819Z,99515.95
2023-04-11T01:58:06.439Z,99514.33
2023-04-11T02:01:08.594Z,99510.98
2023-04-11T02:04:10.649Z,99508.88
2023-04-11T02:07:12.779Z,99504.16
2023-04-11T02:10:14.335Z,99498.91
2023-04-11T02:13:16.183Z,99500.20
2023-04-11T02:16:18.152Z,99497.59
2023-04-11T02:19:20.073Z,99491.55
2023-04-11T02:22:21.692Z,99482.41
2023-04-11T02:25:23.458Z,99472.92
2023-04-11T02:28:25.001Z,99469.95
2023-04-11T02:31:26.596Z,99470.40
2023-04-11T02:34:28.349Z,99466.41
2023-04-11T02:37:29.834Z,99470.67
2023-04-11T02:40:31.550Z,99470.27
2023-04-11T02:43:33.324Z,99470.71
2023-04-11T02:46:35.098Z,99469.23
2023-04-11T02:49:36.812Z,99467.11
2023-04-11T02:52:38.855Z,99466.52
2023-04-11T02:55:40.369Z,99467.31
2023-04-11T02:58:42.231Z,99464.34
2023-04-11T03:01:45.058Z,99460.66
2023-04-11T03:04:46.627Z,99457.51
2023-04-11T03:07:48.171Z,99459.06
2023-04-11T03:10:49.697Z,99454.47
2023-04-11T03:13:51.226Z,99442.19
2023-04-11T03:16:52.982Z,99438.27
2023-04-11T03:19:54.538Z,99440.01
2023-04-11T03:22:56.117Z,99436.46
2023-04-11T03:25:57.672Z,99435.04
2023-04-11T03:28:59.272Z,99433.30
2023-04-11T03:32:00.886Z,99434.27
2023-04-11T03:35:02.509Z,99437.08
2023-04-11T03:38:04.126Z,99436.13
2023-04-11T03:41:05.987Z,99436.05
2023-04-11T03:44:07.607Z,99430.80
2023-04-11T03:47:09.232Z,99435.58
2023-04-11T03:50:11.027Z,99437.64
2023-04-11T03:53:12.595Z,99439.18
2023-04-11T03:56:14.157Z,99441.39
2023-04-11T03:59:15.764Z,99441.74
2023-04-11T04:02:17.398Z,99440.23
2023-04-11T04:05:19.143Z,99435.33
2023-04-11T04:08:20.772Z,99423.88
2023-04-11T04:11:22.297Z,99424.66
2023-04-11T04:14:24.007Z,99418.77
2023-04-11T04:17:25.625Z,99419.27
2023-04-11T04:20:27.294Z,99419.41
2023-04-11T04:23:29.085Z,99414.82
2023-04-11T04:26:31.195Z,99415.98
2023-04-11T04:29:32.829Z,99419.45
2023-04-11T04:32:35.136Z,99424.52
2023-04-11T04:35:36.829Z,99434.31
2023-04-11T04:38:38.512Z,99440.55
2023-04-11T04:41:40.114Z,99439.17
2023-04-11T04:44:41.841Z,99436.45
2023-04-11T04:47:43.328Z,99441.38
2023-04-11T04:50:44.912Z,99438.63
2023-04-11T04:53:46.523Z,99433.11
2023-04-11T04:56:48.044Z,99435.23
2023-04-11T04:59:49.626Z,99435.26
2023-04-11T05:02:51.251Z,99435.08
2023-04-11T05:05:52.765Z,99432.69
2023-04-11T05:08:54.632Z,99429.59
2023-04-11T05:11:56.366Z,99425.64
2023-04-11T05:14:57.891Z,99423.92
2023-04-11T05:17:59.617Z,99413.50
2023-04-11T05:21:01.525Z,99413.42
2023-04-11T05:24:03.465Z,99407.63
2023-04-11T05:27:05.175Z,99403.82
2023-04-11T05:30:06.980Z,99402.98
2023-04-11T05:33:08.621Z,99392.85
2023-04-11T05:36:10.202Z,99381.40
2023-04-11T05:39:11.869Z,99371.92
2023-04-11T05:42:14.923Z,99361.48
2023-04-11T05:45:16.721Z,99350.69
2023-04-11T05:48:18.361Z,99345.17
2023-04-11T05:51:19.982Z,99348.03
2023-04-11T05:54:31.682Z,99349.18
2023-04-11T05:57:33.373Z,99342.00
2023-04-11T06:00:35.247Z,99339.45
2023-04-11T06:03:36.975Z,99333.11
2023-04-11T06:06:38.561Z,99330.75
2023-04-11T06:09:39.977Z,99329.95
2023-04-11T06:12:41.748Z,99325.31
2023-04-11T06:15:43.346Z,99322.93
2023-04-11T06:18:45.111Z,99316.89
2023-04-11T06:21:46.708Z,99313.52
2023-04-11T06:24:48.232Z,99307.83
2023-04-11T06:27:50.280Z,99298.16
2023-04-11T06:30:51.946Z,99299.40
2023-04-11T06:33:53.600Z,99298.70
2023-04-11T06:36:55.251Z,99288.62
2023-04-11T06:39:56.837Z,99282.81
2023-04-11T06:42:58.588Z,99282.21
2023-04-11T06:46:00.380Z,99283.88
2023-04-11T06:49:01.901Z,99279.84
2023-04-11T06:52:03.614Z,99273.52
2023-04-11T06:55:06.098Z,99263.00
2023-04-11T06:58:07.680Z,99256.65
2023-04-11T07:01:09.317Z,99251.88
2023-04-11T07:04:11.289Z,99246.44
2023-04-11T07:07:12.970Z,99244.45
2023-04-11T07:10:14.703Z,99247.75
2023-04-11T07:13:16.351Z,99245.35
2023-04-11T07:16:17.961Z,99247.55
2023-04-11T07:19:19.524Z,99246.45
2023-04-11T07:22:21.243Z,99245.86
2023-04-11T07:25:26.443Z,99247.58
2023-04-11T07:28:28.205Z,99249.52
2023-04-11T07:31:29.754Z,99248.62
2023-04-11T07:34:31.356Z,99248.33
2023-04-11T07:37:32.958Z,99245.79
2023-04-11T07:40:34.483Z,99246.33
2023-04-11T07:43:36.284Z,99237.51
2023-04-11T07:46:38.043Z,99231.27
2023-04-11T07:49:39.768Z,99216.86
2023-04-11T07:52:41.299Z,99215.95
2023-04-11T07:55:42.883Z,99216.27
2023-04-11T07:58:44.411Z,99217.64
2023-04-11T08:01:46.212Z,99214.96
2023-04-11T08:04:47.942Z,99212.10
2023-04-11T08:07:49.545Z,99210.63
2023-04-11T08:10:52.267Z,99198.96
2023-04-11T08:13:54.215Z,99190.12
2023-04-11T08:16:55.921Z,99189.00
2023-04-11T08:19:57.801Z,99190.63
2023-04-11T08:22:59.428Z,99184.77
2023-04-11T08:26:00.999Z,99181.13
2023-04-11T08:29:02.966Z,99175.79
2023-04-11T08:32:04.984Z,99176.39
2023-04-11T08:35:07.164Z,99175.00
2023-04-11T08:38:09.432Z,99169.85
2023-04-11T08:41:12.387Z,99163.52
2023-04-11T08:44:13.993Z,99156.41
2023-04-11T08:47:15.917Z,99153.36
2023-04-11T08:50:17.524Z,99153.27
2023-04-11T08:53:21.004Z,99147.06
2023-04-11T08:56:22.592Z,99137.09
2023-04-11T08:59:24.078Z,99130.84
2023-04-11T09:02:26.371Z,99117.80
2023-04-11T09:05:33.092Z,99106.51
2023-04-11T09:08:38.356Z,99092.60
2023-04-11T09:11:53.738Z,99080.24
2023-04-11T09:14:55.325Z,99072.14
2023-04-11T09:18:00.376Z,99066.51
2023-04-11T09:21:07.412Z,99057.05
2023-04-11T09:24:15.437Z,99059.30
2023-04-11T09:27:17.534Z,99054.27
2023-04-11T09:30:26.115Z,99047.26
2023-04-11T09:33:27.792Z,99039.67
2023-04-11T09:36:29.322Z,99029.45
2023-04-11T09:39:31.164Z,99024.88
2023-04-11T09:42:32.780Z,99019.06
2023-04-11T09:45:44.204Z,99012.20
2023-04-11T09:48:54.575Z,99010.70
2023-04-11T09:51:57.785Z,99012.66
2023-04-11T09:55:00.003Z,99007.58
2023-04-11T09:58:02.275Z,99008.17
2023-04-11T10:01:05.932Z,99002.98
2023-04-11T10:04:07.519Z,98988.90
2023-04-11T10:07:13.167Z,98981.20
2023-04-11T10:10:22.133Z,98975.77
2023-04-11T10:13:43.233Z,98962.83
2023-04-11T10:17:17.891Z,98948.33
2023-04-11T10:20:43.015Z,98950.33
2023-04-11T10:24:18.153Z,98947.24
2023-04-11T10:27:49.036Z,98942.08
2023-04-11T10:31:10.797Z,98945.77
2023-04-11T10:34:13.788Z,98937.98
2023-04-11T10:37:15.644Z,98925.44
2023-04-11T10:40:17.330Z,98919.77
2023-04-11T10:43:19.707Z,98923.85
2023-04-11T10:46:23.254Z,98921.69
2023-04-11T10:49:33.336Z,98916.46
2023-04-11T10:52:37.961Z,98916.48
2023-04-11T10:55:50.262Z,98918.39
2023-04-11T10:58:51.828Z,98908.23
2023-04-11T11:01:57.038Z,98908.77
2023-04-11T11:04:59.982Z,98905.08
2023-04-11T11:08:01.565Z,98899.32
2023-04-11T11:11:05.136Z,98907.11
2023-04-11T11:14:06.654Z,98898.52
2023-04-11T11:17:08.521Z,98895.05
2023-04-11T11:20:17.823Z,98892.31
2023-04-11T11:23:19.324Z,98889.71
2023-04-11T11:26:20.931Z,98884.34
2023-04-11T11:29:34.209Z,98879.08
2023-04-11T11:32:35.849Z,98875.45
2023-04-11T11:35:37.682Z,98876.02
2023-04-11T11:38:39.739Z,98871.73
2023-04-11T11:41:41.428Z,98871.91
2023-04-11T11:44:42.979Z,98865.45
2023-04-11T11:47:45.978Z,98868.91
2023-04-11T11:50:47.581Z,98864.91
2023-04-11T11:54:05.803Z,98860.51
2023-04-11T11:57:07.523Z,98859.18
2023-04-11T12:00:09.806Z,98856.96
2023-04-11T12:03:11.609Z,98852.47
2023-04-11T12:06:13.387Z,98849.17
2023-04-11T12:09:14.970Z,98842.86
2023-04-11T12:12:16.502Z,98842.05
2023-04-11T12:15:19.926Z,98837.67
2023-04-11T12:18:26.725Z,98832.85
2023-04-11T12:21:28.637Z,98832.13
2023-04-11T12:24:30.227Z,98826.80
2023-04-11T12:27:31.795Z,98819.45
2023-04-11T12:30:33.430Z,98821.09
2023-04-11T12:33:35.605Z,98812.70
2023-04-11T12:36:37.163Z,98809.89
2023-04-11T12:39:38.681Z,98811.48
2023-04-11T12:42:49.423Z,98807.24
2023-04-11T12:45:57.610Z,98801.44
2023-04-11T12:48:59.199Z,98797.75
2023-04-11T12:52:00.722Z,98797.72
2023-04-11T12:55:03.349Z,98792.64
2023-04-11T12:58:05.040Z,98787.22
2023-04-11T13:01:07.061Z,98777.95
2023-04-11T13:04:09.237Z,98774.05
2023-04-11T13:07:10.844Z,98767.48
2023-04-11T13:10:13.158Z,98758.92
2023-04-11T13:13:18.345Z,98756.73
2023-04-11T13:16:20.450Z,98753.58
2023-04-11T13:19:23.024Z,98748.94
2023-04-11T13:22:24.871Z,98748.89
2023-04-11T13:25:26.580Z,98742.73
2023-04-11T13:28:28.097Z,98741.73
2023-04-11T13:31:29.722Z,98742.55
2023-04-11T13:34:31.457Z,98736.50
2023-04-11T13:37:33.056Z,98731.52
2023-04-11T13:40:34.591Z,98725.81
2023-04-11T13:43:36.102Z,98724.12
2023-04-11T13:46:37.609Z,98720.73
2023-04-11T13:49:39.243Z,98714.14
2023-04-11T13:52:41.222Z,98708.48
2023-04-11T13:55:42.706Z,98697.21
2023-04-11T13:58:44.359Z,98701.13
2023-04-11T14:01:45.995Z,98698.53
2023-04-11T14:04:47.779Z,98692.15
2023-04-11T14:07:49.242Z,98691.08
2023-04-11T14:10:50.916Z,98687.98
2023-04-11T14:13:52.436Z,98679.30
2023-04-11T14:16:54.288Z,98673.33
2023-04-11T14:19:55.892Z,98671.54
2023-04-11T14:22:57.481Z,98666.80
2023-04-11T14:25:59.445Z,98657.83
2023-04-11T14:29:01.002Z,98652.47
2023-04-11T14:32:02.728Z,98653.89
2023-04-11T14:35:04.940Z,98653.70
2023-04-11T14:38:06.502Z,98655.05
2023-04-11T14:41:09.701Z,98654.02
2023-04-11T14:44:12.736Z,98653.42
2023-04-11T14:47:22.475Z,98649.62
2023-04-11T14:50:24.761Z,98646.48
2023-04-11T14:53:27.203Z,98646.35
2023-04-11T14:56:28.887Z,98644.34
2023-04-11T14:59:30.476Z,98641.54
2023-04-11T15:02:32.333Z,98636.00
2023-04-11T15:05:34.121Z,98640.52
2023-04-11T15:08:35.661Z,98638.05
2023-04-11T15:11:37.602Z,98638.23
2023-04-11T15:14:39.132Z,98628.31
2023-04-11T15:17:42.564Z,98628.54
2023-04-11T15:20:44.168Z,98625.48
2023-04-11T15:23:45.790Z,98622.09
2023-04-11T15:26:47.318Z,98619.63
2023-04-11T15:29:48.946Z,98618.70
2023-04-11T15:32:50.608Z,98615.73
2023-04-11T15:35:52.906Z,98610.10
2023-04-11T15:38:54.572Z,98603.83
2023-04-11T15:41:56.077Z,98599.95
2023-04-11T15:44:57.724Z,98595.71
2023-04-11T15:47:59.324Z,98596.27
2023-04-11T15:51:08.330Z,98594.77
2023-04-11T15:54:09.835Z,98589.11
2023-04-11T15:57:11.363Z,98583.31
2023-04-11T16:00:13.539Z,98579.00
2023-04-11T16:03:15.305Z,98573.81
2023-04-11T16:06:17.244Z,98578.30
2023-04-11T16:09:18.967Z,98574.72
2023-04-11T16:12:20.518Z,98580.35
2023-04-11T16:15:22.232Z,98577.50
2023-04-11T16:18:23.723Z,98570.25
2023-04-11T16:21:25.294Z,98572.38
2023-04-11T16:24:28.855Z,98572.77
2023-04-11T16:27:30.505Z,98581.31
2023-04-11T16:30:32.201Z,98582.19
2023-04-11T16:33:33.880Z,98591.99
2023-04-11T16:36:35.770Z,98601.11
2023-04-11T16:39:37.877Z,98628.80
2023-04-11T16:42:39.472Z,98649.09
2023-04-11T16:45:41.255Z,98652.70
2023-04-11T16:48:43.212Z,98655.11
2023-04-11T16:51:44.712Z,98665.85
2023-04-11T16:54:46.399Z,98676.58
2023-04-11T16:57:47.937Z,98677.47
2023-04-11T17:00:50.319Z,98678.89
2023-04-11T17:03:52.528Z,98674.65
2023-04-11T17:06:54.373Z,98683.94
2023-04-11T17:09:56.227Z,98691.05
2023-04-11T17:12:58.382Z,98695.63
2023-04-11T17:16:00.129Z,98697.83
2023-04-11T17:19:01.856Z,98700.95
2023-04-11T17:22:03.551Z,98699.70
2023-04-11T17:25:05.779Z,98700.86
2023-04-11T17:28:07.550Z,98697.05
2023-04-11T17:31:13.508Z,98700.23
2023-04-11T17:34:15.315Z,98701.03
2023-04-11T17:37:16.818Z,98704.66
2023-04-11T17:40:18.572Z,98712.42
2023-04-11T17:43:20.302Z,98724.13
2023-04-11T17:46:22.081Z,98728.79
2023-04-11T17:49:23.681Z,98734.46
2023-04-11T17:52:25.304Z,98737.93
2023-04-11T17:55:27.177Z,98739.16
2023-04-11T17:58:29.197Z,98746.48
2023-04-11T18:01:31.024Z,98752.31
2023-04-11T18:04:32.841Z,98757.23
2023-04-11T18:07:34.490Z,98759.01
2023-04-11T18:10:36.189Z,98763.20
2023-04-11T18:13:38.077Z,98764.23
2023-04-11T18:16:39.826Z,98765.59
2023-04-11T18:19:41.458Z,98764.56
2023-04-11T18:22:48.091Z,98769.02
2023-04-11T18:25:49.806Z,98770.27
2023-04-11T18:28:51.239Z,98776.42
2023-04-11T18:32:19.619Z,98774.98
2023-04-11T18:35:14.815Z,98779.06
2023-04-11T18:38:16.643Z,98782.70
2023-04-11T18:41:18.815Z,98782.77
2023-04-11T18:44:20.833Z,98783.60
2023-04-11T18:47:22.669Z,98786.05
2023-04-11T18:50:24.622Z,98790.67
2023-04-11T18:53:26.761Z,98790.95
2023-04-11T18:56:28.424Z,98787.05
2023-04-11T18:59:31.309Z,98787.63
2023-04-11T19:02:36.224Z,98786.09
2023-04-11T19:05:37.997Z,98791.37
2023-04-11T19:08:40.415Z,98789.17
2023-04-11T19:11:41.843Z,98788.90
2023-04-11T19:14:43.566Z,98788.66
2023-04-11T19:17:45.322Z,98787.24
2023-04-11T19:20:46.998Z,98782.33
2023-04-11T19:23:48.986Z,98780.60
2023-04-11T19:26:51.515Z,98779.45
2023-04-11T19:29:59.284Z,98779.02
2023-04-11T19:33:04.547Z,98779.86
2023-04-11T19:36:06.613Z,98776.56
2023-04-11T19:39:08.307Z,98777.48
2023-04-11T19:42:09.845Z,98773.52
2023-04-11T19:45:12.017Z,98774.18
2023-04-11T19:48:14.318Z,98779.54
2023-04-11T19:51:15.911Z,98785.72
2023-04-11T19:54:17.618Z,98788.67
2023-04-11T19:57:19.420Z,98793.61
2023-04-11T20:00:25.083Z,98798.27
2023-04-11T20:03:28.378Z,98798.16
2023-04-11T20:06:30.016Z,98800.41
2023-04-11T20:09:31.865Z,98799.09
2023-04-11T20:12:34.270Z,98805.09
2023-04-11T20:15:35.913Z,98806.09
2023-04-11T20:18:37.525Z,98809.65
2023-04-11T20:21:39.112Z,98815.31
2023-04-11T20:24:40.853Z,98818.13
2023-04-11T20:27:42.443Z,98820.34
2023-04-11T20:30:44.085Z,98819.09
2023-04-11T20:33:45.603Z,98822.88
2023-04-11T20:36:47.326Z,98825.30
2023-04-11T20:39:49.782Z,98825.05
2023-04-11T20:42:51.289Z,98826.56
2023-04-11T20:45:52.815Z,98829.79
2023-04-11T20:48:54.343Z,98826.03
2023-04-11T20:51:55.839Z,98828.63
2023-04-11T20:54:57.291Z,98833.83
2023-04-11T20:57:58.988Z,98837.83
2023-04-11T21:01:00.664Z,98843.09
2023-04-11T21:06:03.881Z,98847.70
2023-04-11T21:09:05.900Z,98850.48
2023-04-11T21:12:07.417Z,98851.84
2023-04-11T21:15:09.553Z,98854.41
2023-04-11T21:18:11.314Z,98857.52
2023-04-11T21:21:13.443Z,98863.55
2023-04-11T21:24:15.059Z,98867.55
2023-04-11T21:27:16.606Z,98868.30
2023-04-11T21:30:18.226Z,98865.92
2023-04-11T21:33:20.135Z,98869.03
2023-04-11T21:36:21.750Z,98870.54
2023-04-11T21:39:23.341Z,98878.73
2023-04-11T21:42:24.877Z,98880.58
2023-04-11T21:45:26.446Z,98882.40
2023-04-11T21:48:28.060Z,98884.56
2023-04-11T21:51:29.548Z,98886.70
2023-04-11T21:54:33.617Z,98885.36
2023-04-11T21:57:35.519Z,98889.95
2023-04-11T22:00:37.060Z,98889.14
2023-04-11T22:03:38.942Z,98889.86
2023-04-11T22:06:40.442Z,98892.83
2023-04-11T22:09:42.172Z,98891.38
2023-04-11T22:12:43.714Z,98896.11
2023-04-11T22:15:46.404Z,98897.89
2023-04-11T22:18:47.906Z,98898.27
2023-04-11T22:21:49.503Z,98903.64
2023-04-11T22:24:51.089Z,98898.15
2023-04-11T22:27:52.620Z,98899.38
2023-04-11T22:30:54.201Z,98896.80
2023-04-11T22:33:56.349Z,98897.88
2023-04-11T22:36:58.400Z,98898.91
2023-04-11T22:40:00.122Z,98901.32
2023-04-11T22:43:02.002Z,98902.35
2023-04-11T22:46:03.832Z,98898.95
2023-04-11T22:49:08.965Z,98899.30
2023-04-11T22:52:11.509Z,98894.98
2023-04-11T22:55:13.411Z,98897.23
2023-04-11T22:58:14.974Z,98892.95
2023-04-11T23:01:16.559Z,98888.84
2023-04-11T23:04:19.186Z,98885.43
2023-04-11T23:07:20.854Z,98881.19
2023-04-11T23:10:22.618Z,98883.77
2023-04-11T23:13:24.268Z,98884.19
2023-04-11T23:16:25.819Z,98876.93
2023-04-11T23:19:27.569Z,98874.66
2023-04-11T23:22:29.336Z,98871.64
2023-04-11T23:25:31.175Z,98868.42
2023-04-11T23:28:32.843Z,98871.09
2023-04-11T23:31:34.370Z,98872.14
2023-04-11T23:34:36.002Z,98871.18
2023-04-11T23:37:37.498Z,98861.60
2023-04-11T23:40:39.279Z,98862.16
2023-04-11T23:43:40.973Z,98855.14
2023-04-11T23:46:42.665Z,98857.38
2023-04-11T23:49:44.378Z,98853.52
2023-04-11T23:52:45.908Z,98851.52
2023-04-11T23:55:47.516Z,98850.67
2023-04-11T23:58:49.247Z,98852.73
